Hustontown, Pennsylvania
Current Conditions -  °F | °C
As of 3:53 PM on Tuesday 25 Nov 2014 (Local Time) from KAOO Reporting Station
Clear Clear  
Wind Chill:   Ceiling: Unl
Heat Index:   Visibility: 10mi
Dew Point: -2°   Wind: 9mph
Humidity: 48%   Direction: 260°W
Pressure: 30.01"   Gusts: NA
Location:  40.05°N, 78.03°W
Report Text: KAOO 252053Z AUTO 26008KT 10SM CLR 09/M02 A3001 RMK AO2 SLP169 T00891017 55002
Loading
Personal Weather Stations






























Interactive Weather Map New forecast layout! Learn more

10-Day Weather Forecast

Advertisements
Track Severe Weather on mobile